sensor_id;sensor_type;location;lat;lon;timestamp;P1;durP1;ratioP1;P2;durP2;ratioP2
5801;SDS011;2927;49.366;8.530;2022-10-28T00:02:11;33.47;;;10.20;;
5801;SDS011;2927;49.366;8.530;2022-10-28T00:04:36;21.87;;;8.00;;
5801;SDS011;2927;49.366;8.530;2022-10-28T00:07:02;17.47;;;8.53;;
5801;SDS011;2927;49.366;8.530;2022-10-28T00:09:27;14.77;;;8.90;;
5801;SDS011;2927;49.366;8.530;2022-10-28T00:11:53;25.20;;;9.07;;
5801;SDS011;2927;49.366;8.530;2022-10-28T00:14:19;13.33;;;9.10;;
5801;SDS011;2927;49.366;8.530;2022-10-28T00:16:45;24.00;;;9.90;;
5801;SDS011;2927;49.366;8.530;2022-10-28T00:19:11;21.93;;;9.10;;
5801;SDS011;2927;49.366;8.530;2022-10-28T00:21:38;20.97;;;8.87;;
5801;SDS011;2927;49.366;8.530;2022-10-28T00:24:05;17.67;;;7.63;;
5801;SDS011;2927;49.366;8.530;2022-10-28T00:26:32;16.90;;;7.47;;
5801;SDS011;2927;49.366;8.530;2022-10-28T00:29:04;11.93;;;7.80;;
5801;SDS011;2927;49.366;8.530;2022-10-28T00:31:32;20.73;;;8.73;;
5801;SDS011;2927;49.366;8.530;2022-10-28T00:33:59;10.63;;;7.27;;
5801;SDS011;2927;49.366;8.530;2022-10-28T00:36:36;13.57;;;8.50;;
5801;SDS011;2927;49.366;8.530;2022-10-28T00:39:12;16.90;;;8.10;;
5801;SDS011;2927;49.366;8.530;2022-10-28T00:41:40;23.07;;;7.43;;
5801;SDS011;2927;49.366;8.530;2022-10-28T00:50:24;16.80;;;7.40;;
5801;SDS011;2927;49.366;8.530;2022-10-28T00:52:55;17.67;;;9.23;;
5801;SDS011;2927;49.366;8.530;2022-10-28T00:55:27;16.67;;;7.87;;
5801;SDS011;2927;49.366;8.530;2022-10-28T00:57:54;14.27;;;7.87;;
5801;SDS011;2927;49.366;8.530;2022-10-28T01:00:21;17.10;;;8.10;;
5801;SDS011;2927;49.366;8.530;2022-10-28T01:02:47;11.80;;;6.70;;
5801;SDS011;2927;49.366;8.530;2022-10-28T01:05:14;17.57;;;6.20;;
5801;SDS011;2927;49.366;8.530;2022-10-28T01:07:44;12.03;;;5.90;;
5801;SDS011;2927;49.366;8.530;2022-10-28T01:10:10;13.40;;;6.60;;
5801;SDS011;2927;49.366;8.530;2022-10-28T01:12:47;22.50;;;6.03;;
5801;SDS011;2927;49.366;8.530;2022-10-28T01:23:38;21.23;;;5.77;;
5801;SDS011;2927;49.366;8.530;2022-10-28T01:31:43;22.93;;;5.07;;
5801;SDS011;2927;49.366;8.530;2022-10-28T01:37:14;16.03;;;4.43;;
5801;SDS011;2927;49.366;8.530;2022-10-28T01:39:52;16.10;;;5.60;;
5801;SDS011;2927;49.366;8.530;2022-10-28T01:45:00;9.07;;;4.90;;
5801;SDS011;2927;49.366;8.530;2022-10-28T01:50:37;17.17;;;4.60;;
5801;SDS011;2927;49.366;8.530;2022-10-28T01:53:10;11.10;;;3.87;;
5801;SDS011;2927;49.366;8.530;2022-10-28T01:55:40;10.83;;;3.93;;
5801;SDS011;2927;49.366;8.530;2022-10-28T01:58:10;4.80;;;3.60;;
5801;SDS011;2927;49.366;8.530;2022-10-28T02:00:39;10.37;;;3.37;;
5801;SDS011;2927;49.366;8.530;2022-10-28T02:03:07;13.80;;;3.50;;
5801;SDS011;2927;49.366;8.530;2022-10-28T02:05:35;10.53;;;4.10;;
5801;SDS011;2927;49.366;8.530;2022-10-28T02:11:00;5.77;;;3.63;;
5801;SDS011;2927;49.366;8.530;2022-10-28T02:18:55;17.47;;;3.57;;
5801;SDS011;2927;49.366;8.530;2022-10-28T02:24:37;8.27;;;3.73;;
5801;SDS011;2927;49.366;8.530;2022-10-28T02:27:19;7.83;;;2.77;;
5801;SDS011;2927;49.366;8.530;2022-10-28T02:30:03;10.07;;;3.67;;
5801;SDS011;2927;49.366;8.530;2022-10-28T02:32:33;3.93;;;3.37;;
5801;SDS011;2927;49.366;8.530;2022-10-28T02:35:02;4.97;;;2.93;;
5801;SDS011;2927;49.366;8.530;2022-10-28T02:37:32;12.53;;;2.90;;
5801;SDS011;2927;49.366;8.530;2022-10-28T02:40:01;20.83;;;3.97;;
5801;SDS011;2927;49.366;8.530;2022-10-28T02:42:32;11.43;;;2.83;;
5801;SDS011;2927;49.366;8.530;2022-10-28T02:45:03;7.70;;;4.53;;
5801;SDS011;2927;49.366;8.530;2022-10-28T02:48:07;5.30;;;3.73;;
5801;SDS011;2927;49.366;8.530;2022-10-28T02:50:38;7.43;;;3.30;;
5801;SDS011;2927;49.366;8.530;2022-10-28T02:53:10;16.27;;;3.23;;
5801;SDS011;2927;49.366;8.530;2022-10-28T02:55:43;16.60;;;4.00;;
5801;SDS011;2927;49.366;8.530;2022-10-28T02:58:15;10.40;;;3.03;;
5801;SDS011;2927;49.366;8.530;2022-10-28T03:00:44;9.07;;;4.13;;
5801;SDS011;2927;49.366;8.530;2022-10-28T03:03:10;14.17;;;3.43;;
5801;SDS011;2927;49.366;8.530;2022-10-28T03:05:36;7.00;;;2.60;;
5801;SDS011;2927;49.366;8.530;2022-10-28T03:08:02;12.43;;;3.70;;
5801;SDS011;2927;49.366;8.530;2022-10-28T03:10:27;13.43;;;3.13;;
5801;SDS011;2927;49.366;8.530;2022-10-28T03:12:53;7.43;;;2.90;;
5801;SDS011;2927;49.366;8.530;2022-10-28T03:15:18;10.33;;;3.97;;
5801;SDS011;2927;49.366;8.530;2022-10-28T03:17:44;5.80;;;3.43;;
5801;SDS011;2927;49.366;8.530;2022-10-28T03:20:10;6.47;;;2.67;;
5801;SDS011;2927;49.366;8.530;2022-10-28T03:22:35;18.13;;;4.33;;
5801;SDS011;2927;49.366;8.530;2022-10-28T03:25:01;12.03;;;2.80;;
5801;SDS011;2927;49.366;8.530;2022-10-28T03:27:27;13.83;;;3.13;;
5801;SDS011;2927;49.366;8.530;2022-10-28T03:29:52;9.60;;;3.50;;
5801;SDS011;2927;49.366;8.530;2022-10-28T03:32:17;12.83;;;3.57;;
5801;SDS011;2927;49.366;8.530;2022-10-28T03:34:43;10.87;;;4.10;;
5801;SDS011;2927;49.366;8.530;2022-10-28T03:37:09;6.97;;;2.93;;
5801;SDS011;2927;49.366;8.530;2022-10-28T03:39:34;12.83;;;4.80;;
5801;SDS011;2927;49.366;8.530;2022-10-28T03:42:00;10.43;;;3.50;;
5801;SDS011;2927;49.366;8.530;2022-10-28T03:44:25;8.43;;;3.00;;
5801;SDS011;2927;49.366;8.530;2022-10-28T03:46:51;9.67;;;3.40;;
5801;SDS011;2927;49.366;8.530;2022-10-28T03:49:16;5.87;;;3.07;;
5801;SDS011;2927;49.366;8.530;2022-10-28T03:51:42;8.40;;;3.73;;
5801;SDS011;2927;49.366;8.530;2022-10-28T03:54:07;7.60;;;3.63;;
5801;SDS011;2927;49.366;8.530;2022-10-28T03:56:33;10.33;;;2.53;;
5801;SDS011;2927;49.366;8.530;2022-10-28T03:58:58;21.90;;;2.93;;
5801;SDS011;2927;49.366;8.530;2022-10-28T04:01:24;5.50;;;2.90;;
5801;SDS011;2927;49.366;8.530;2022-10-28T04:03:49;4.93;;;3.33;;
5801;SDS011;2927;49.366;8.530;2022-10-28T04:06:15;7.50;;;2.70;;
5801;SDS011;2927;49.366;8.530;2022-10-28T04:08:41;15.47;;;3.13;;
5801;SDS011;2927;49.366;8.530;2022-10-28T04:11:06;6.80;;;3.40;;
5801;SDS011;2927;49.366;8.530;2022-10-28T04:13:32;16.33;;;3.60;;
5801;SDS011;2927;49.366;8.530;2022-10-28T04:15:57;15.63;;;2.50;;
5801;SDS011;2927;49.366;8.530;2022-10-28T04:18:23;8.50;;;2.83;;
5801;SDS011;2927;49.366;8.530;2022-10-28T04:20:50;6.37;;;2.70;;
5801;SDS011;2927;49.366;8.530;2022-10-28T04:23:16;5.93;;;2.57;;
5801;SDS011;2927;49.366;8.530;2022-10-28T04:25:42;11.37;;;3.53;;
5801;SDS011;2927;49.366;8.530;2022-10-28T04:28:07;9.27;;;3.50;;
5801;SDS011;2927;49.366;8.530;2022-10-28T04:30:33;6.77;;;3.30;;
5801;SDS011;2927;49.366;8.530;2022-10-28T04:32:58;6.30;;;2.90;;
5801;SDS011;2927;49.366;8.530;2022-10-28T04:35:24;6.00;;;3.00;;
5801;SDS011;2927;49.366;8.530;2022-10-28T04:37:50;12.53;;;2.47;;
5801;SDS011;2927;49.366;8.530;2022-10-28T04:40:15;10.07;;;3.53;;
5801;SDS011;2927;49.366;8.530;2022-10-28T04:42:41;16.87;;;2.93;;
5801;SDS011;2927;49.366;8.530;2022-10-28T04:45:07;7.90;;;3.40;;
5801;SDS011;2927;49.366;8.530;2022-10-28T04:47:33;8.33;;;2.60;;
5801;SDS011;2927;49.366;8.530;2022-10-28T04:49:59;11.47;;;3.80;;
5801;SDS011;2927;49.366;8.530;2022-10-28T04:52:24;9.10;;;3.10;;
5801;SDS011;2927;49.366;8.530;2022-10-28T04:54:50;7.43;;;3.40;;
5801;SDS011;2927;49.366;8.530;2022-10-28T04:57:15;8.20;;;3.27;;
5801;SDS011;2927;49.366;8.530;2022-10-28T04:59:41;8.50;;;3.93;;
5801;SDS011;2927;49.366;8.530;2022-10-28T05:02:06;10.03;;;3.70;;
5801;SDS011;2927;49.366;8.530;2022-10-28T05:04:32;17.13;;;3.03;;
5801;SDS011;2927;49.366;8.530;2022-10-28T05:06:57;11.80;;;3.33;;
5801;SDS011;2927;49.366;8.530;2022-10-28T05:09:23;8.63;;;3.63;;
5801;SDS011;2927;49.366;8.530;2022-10-28T05:11:48;8.63;;;2.83;;
5801;SDS011;2927;49.366;8.530;2022-10-28T05:14:14;8.23;;;3.87;;
5801;SDS011;2927;49.366;8.530;2022-10-28T05:16:39;17.77;;;5.00;;
5801;SDS011;2927;49.366;8.530;2022-10-28T05:19:05;21.87;;;5.93;;
5801;SDS011;2927;49.366;8.530;2022-10-28T05:21:30;9.63;;;4.10;;
5801;SDS011;2927;49.366;8.530;2022-10-28T05:23:56;8.27;;;3.83;;
5801;SDS011;2927;49.366;8.530;2022-10-28T05:26:21;11.43;;;3.40;;
5801;SDS011;2927;49.366;8.530;2022-10-28T05:28:47;6.63;;;2.77;;
5801;SDS011;2927;49.366;8.530;2022-10-28T05:31:14;10.10;;;2.93;;
5801;SDS011;2927;49.366;8.530;2022-10-28T05:33:39;12.33;;;3.73;;
5801;SDS011;2927;49.366;8.530;2022-10-28T05:36:05;8.67;;;3.80;;
5801;SDS011;2927;49.366;8.530;2022-10-28T05:38:30;10.07;;;3.63;;
5801;SDS011;2927;49.366;8.530;2022-10-28T05:40:56;12.60;;;3.37;;
5801;SDS011;2927;49.366;8.530;2022-10-28T05:43:21;13.40;;;3.33;;
5801;SDS011;2927;49.366;8.530;2022-10-28T05:45:50;13.87;;;3.50;;
5801;SDS011;2927;49.366;8.530;2022-10-28T05:48:19;8.80;;;3.70;;
5801;SDS011;2927;49.366;8.530;2022-10-28T05:50:45;16.13;;;3.97;;
5801;SDS011;2927;49.366;8.530;2022-10-28T05:53:11;9.67;;;3.93;;
5801;SDS011;2927;49.366;8.530;2022-10-28T05:55:36;8.70;;;3.67;;
5801;SDS011;2927;49.366;8.530;2022-10-28T05:58:02;4.87;;;3.13;;
5801;SDS011;2927;49.366;8.530;2022-10-28T06:00:27;5.73;;;2.77;;
5801;SDS011;2927;49.366;8.530;2022-10-28T06:03:03;12.93;;;3.60;;
5801;SDS011;2927;49.366;8.530;2022-10-28T06:05:33;6.03;;;3.37;;
5801;SDS011;2927;49.366;8.530;2022-10-28T06:07:59;9.40;;;3.10;;
5801;SDS011;2927;49.366;8.530;2022-10-28T06:10:25;6.97;;;2.43;;
5801;SDS011;2927;49.366;8.530;2022-10-28T06:12:50;16.20;;;3.50;;
5801;SDS011;2927;49.366;8.530;2022-10-28T06:15:18;4.60;;;3.33;;
5801;SDS011;2927;49.366;8.530;2022-10-28T06:17:46;7.80;;;3.70;;
5801;SDS011;2927;49.366;8.530;2022-10-28T06:20:12;10.87;;;3.27;;
5801;SDS011;2927;49.366;8.530;2022-10-28T06:22:45;8.80;;;3.20;;
5801;SDS011;2927;49.366;8.530;2022-10-28T06:25:11;5.63;;;3.30;;
5801;SDS011;2927;49.366;8.530;2022-10-28T06:27:37;6.50;;;3.53;;
5801;SDS011;2927;49.366;8.530;2022-10-28T06:30:02;6.00;;;2.60;;
5801;SDS011;2927;49.366;8.530;2022-10-28T06:32:28;14.47;;;3.80;;
5801;SDS011;2927;49.366;8.530;2022-10-28T06:34:54;8.03;;;3.67;;
5801;SDS011;2927;49.366;8.530;2022-10-28T06:37:19;9.60;;;2.97;;
5801;SDS011;2927;49.366;8.530;2022-10-28T06:39:45;11.97;;;3.00;;
5801;SDS011;2927;49.366;8.530;2022-10-28T06:42:15;9.83;;;3.23;;
5801;SDS011;2927;49.366;8.530;2022-10-28T06:44:41;6.50;;;3.10;;
5801;SDS011;2927;49.366;8.530;2022-10-28T06:47:06;8.23;;;3.50;;
5801;SDS011;2927;49.366;8.530;2022-10-28T06:49:32;15.47;;;3.77;;
5801;SDS011;2927;49.366;8.530;2022-10-28T06:51:57;8.10;;;3.20;;
5801;SDS011;2927;49.366;8.530;2022-10-28T06:54:23;8.37;;;3.10;;
5801;SDS011;2927;49.366;8.530;2022-10-28T06:56:48;9.23;;;3.63;;
5801;SDS011;2927;49.366;8.530;2022-10-28T06:59:14;8.50;;;3.83;;
5801;SDS011;2927;49.366;8.530;2022-10-28T07:01:39;7.50;;;4.37;;
5801;SDS011;2927;49.366;8.530;2022-10-28T07:04:05;10.97;;;3.70;;
5801;SDS011;2927;49.366;8.530;2022-10-28T07:06:32;5.47;;;3.70;;
5801;SDS011;2927;49.366;8.530;2022-10-28T07:08:57;7.80;;;3.20;;
5801;SDS011;2927;49.366;8.530;2022-10-28T07:11:23;11.00;;;3.73;;
5801;SDS011;2927;49.366;8.530;2022-10-28T07:13:48;9.10;;;3.20;;
5801;SDS011;2927;49.366;8.530;2022-10-28T07:16:14;7.80;;;2.97;;
5801;SDS011;2927;49.366;8.530;2022-10-28T07:18:39;14.03;;;3.70;;
5801;SDS011;2927;49.366;8.530;2022-10-28T07:21:05;12.70;;;4.33;;
5801;SDS011;2927;49.366;8.530;2022-10-28T07:23:30;11.23;;;3.07;;
5801;SDS011;2927;49.366;8.530;2022-10-28T07:25:56;9.40;;;3.73;;
5801;SDS011;2927;49.366;8.530;2022-10-28T07:28:23;8.60;;;2.80;;
5801;SDS011;2927;49.366;8.530;2022-10-28T07:30:49;12.37;;;3.43;;
5801;SDS011;2927;49.366;8.530;2022-10-28T07:33:15;9.73;;;3.13;;
5801;SDS011;2927;49.366;8.530;2022-10-28T07:35:41;15.53;;;3.67;;
5801;SDS011;2927;49.366;8.530;2022-10-28T07:38:08;12.13;;;3.37;;
5801;SDS011;2927;49.366;8.530;2022-10-28T07:40:34;14.10;;;3.00;;
5801;SDS011;2927;49.366;8.530;2022-10-28T07:42:59;6.00;;;3.67;;
5801;SDS011;2927;49.366;8.530;2022-10-28T07:45:25;9.40;;;3.00;;
5801;SDS011;2927;49.366;8.530;2022-10-28T07:47:51;12.17;;;2.70;;
5801;SDS011;2927;49.366;8.530;2022-10-28T07:50:17;22.30;;;3.77;;
5801;SDS011;2927;49.366;8.530;2022-10-28T07:52:43;10.10;;;2.83;;
5801;SDS011;2927;49.366;8.530;2022-10-28T07:55:09;13.50;;;2.87;;
5801;SDS011;2927;49.366;8.530;2022-10-28T07:57:35;9.20;;;3.00;;
5801;SDS011;2927;49.366;8.530;2022-10-28T08:00:02;8.57;;;3.30;;
5801;SDS011;2927;49.366;8.530;2022-10-28T08:02:29;6.60;;;3.33;;
5801;SDS011;2927;49.366;8.530;2022-10-28T08:04:54;6.80;;;2.83;;
5801;SDS011;2927;49.366;8.530;2022-10-28T08:07:20;15.63;;;3.77;;
5801;SDS011;2927;49.366;8.530;2022-10-28T08:09:47;8.10;;;3.80;;
5801;SDS011;2927;49.366;8.530;2022-10-28T08:12:13;11.40;;;2.77;;
5801;SDS011;2927;49.366;8.530;2022-10-28T08:14:39;12.37;;;3.23;;
5801;SDS011;2927;49.366;8.530;2022-10-28T08:17:05;5.57;;;3.50;;
5801;SDS011;2927;49.366;8.530;2022-10-28T08:19:30;4.50;;;3.47;;
5801;SDS011;2927;49.366;8.530;2022-10-28T08:21:56;10.13;;;3.10;;
5801;SDS011;2927;49.366;8.530;2022-10-28T08:24:22;7.13;;;3.00;;
5801;SDS011;2927;49.366;8.530;2022-10-28T08:26:47;10.40;;;3.70;;
5801;SDS011;2927;49.366;8.530;2022-10-28T08:29:13;7.00;;;3.27;;
5801;SDS011;2927;49.366;8.530;2022-10-28T08:31:38;9.53;;;3.07;;
5801;SDS011;2927;49.366;8.530;2022-10-28T08:34:04;10.03;;;3.20;;
5801;SDS011;2927;49.366;8.530;2022-10-28T08:36:30;8.90;;;2.90;;
5801;SDS011;2927;49.366;8.530;2022-10-28T08:38:56;9.73;;;3.00;;
5801;SDS011;2927;49.366;8.530;2022-10-28T08:41:30;9.70;;;2.90;;
5801;SDS011;2927;49.366;8.530;2022-10-28T08:44:14;11.90;;;2.90;;
5801;SDS011;2927;49.366;8.530;2022-10-28T08:49:31;18.43;;;3.00;;
5801;SDS011;2927;49.366;8.530;2022-10-28T08:52:01;12.97;;;3.50;;
5801;SDS011;2927;49.366;8.530;2022-10-28T08:54:38;11.93;;;2.83;;
5801;SDS011;2927;49.366;8.530;2022-10-28T08:57:09;7.93;;;3.30;;
5801;SDS011;2927;49.366;8.530;2022-10-28T08:59:40;4.67;;;2.40;;
5801;SDS011;2927;49.366;8.530;2022-10-28T09:04:46;12.80;;;2.67;;
5801;SDS011;2927;49.366;8.530;2022-10-28T09:07:36;5.27;;;2.33;;
5801;SDS011;2927;49.366;8.530;2022-10-28T09:10:02;11.07;;;3.40;;
5801;SDS011;2927;49.366;8.530;2022-10-28T09:15:28;7.83;;;2.90;;
5801;SDS011;2927;49.366;8.530;2022-10-28T09:18:24;14.97;;;2.87;;
5801;SDS011;2927;49.366;8.530;2022-10-28T09:21:03;7.10;;;3.10;;
5801;SDS011;2927;49.366;8.530;2022-10-28T09:23:36;15.27;;;2.97;;
5801;SDS011;2927;49.366;8.530;2022-10-28T09:29:10;7.47;;;2.90;;
5801;SDS011;2927;49.366;8.530;2022-10-28T09:31:48;8.63;;;3.37;;
5801;SDS011;2927;49.366;8.530;2022-10-28T09:39:27;12.83;;;3.27;;
5801;SDS011;2927;49.366;8.530;2022-10-28T09:41:58;8.33;;;2.40;;
5801;SDS011;2927;49.366;8.530;2022-10-28T09:46:58;8.93;;;3.33;;
5801;SDS011;2927;49.366;8.530;2022-10-28T09:49:27;10.60;;;2.77;;
5801;SDS011;2927;49.366;8.530;2022-10-28T09:51:59;7.40;;;3.70;;
5801;SDS011;2927;49.366;8.530;2022-10-28T09:54:33;9.93;;;3.17;;
5801;SDS011;2927;49.366;8.530;2022-10-28T09:57:02;7.47;;;2.17;;
5801;SDS011;2927;49.366;8.530;2022-10-28T09:59:28;9.17;;;3.63;;
5801;SDS011;2927;49.366;8.530;2022-10-28T10:01:53;10.10;;;2.93;;
5801;SDS011;2927;49.366;8.530;2022-10-28T10:04:20;9.00;;;2.37;;
5801;SDS011;2927;49.366;8.530;2022-10-28T10:07:31;6.90;;;2.30;;
5801;SDS011;2927;49.366;8.530;2022-10-28T10:09:38;11.33;;;2.57;;
5801;SDS011;2927;49.366;8.530;2022-10-28T10:12:08;9.43;;;2.33;;
5801;SDS011;2927;49.366;8.530;2022-10-28T10:14:37;9.23;;;2.53;;
5801;SDS011;2927;49.366;8.530;2022-10-28T10:17:12;5.40;;;2.77;;
5801;SDS011;2927;49.366;8.530;2022-10-28T10:22:33;4.90;;;3.00;;
5801;SDS011;2927;49.366;8.530;2022-10-28T10:25:25;11.47;;;3.00;;
5801;SDS011;2927;49.366;8.530;2022-10-28T10:28:12;6.17;;;2.70;;
5801;SDS011;2927;49.366;8.530;2022-10-28T10:30:44;7.47;;;2.50;;
5801;SDS011;2927;49.366;8.530;2022-10-28T10:33:17;11.43;;;2.93;;
5801;SDS011;2927;49.366;8.530;2022-10-28T10:38:31;7.10;;;2.80;;
5801;SDS011;2927;49.366;8.530;2022-10-28T10:40:57;2.83;;;2.63;;
5801;SDS011;2927;49.366;8.530;2022-10-28T10:48:22;11.37;;;2.47;;
5801;SDS011;2927;49.366;8.530;2022-10-28T10:50:48;11.27;;;2.33;;
5801;SDS011;2927;49.366;8.530;2022-10-28T10:53:18;4.60;;;2.03;;
5801;SDS011;2927;49.366;8.530;2022-10-28T10:55:48;5.43;;;2.93;;
5801;SDS011;2927;49.366;8.530;2022-10-28T10:58:20;7.93;;;2.70;;
5801;SDS011;2927;49.366;8.530;2022-10-28T11:00:50;12.73;;;2.80;;
5801;SDS011;2927;49.366;8.530;2022-10-28T11:03:21;12.80;;;2.70;;
5801;SDS011;2927;49.366;8.530;2022-10-28T11:05:54;5.80;;;2.47;;
5801;SDS011;2927;49.366;8.530;2022-10-28T11:08:40;11.93;;;2.83;;
5801;SDS011;2927;49.366;8.530;2022-10-28T11:14:06;6.00;;;2.37;;
5801;SDS011;2927;49.366;8.530;2022-10-28T11:16:52;7.33;;;3.00;;
5801;SDS011;2927;49.366;8.530;2022-10-28T11:19:31;8.40;;;2.93;;
5801;SDS011;2927;49.366;8.530;2022-10-28T11:22:01;10.93;;;2.33;;
5801;SDS011;2927;49.366;8.530;2022-10-28T11:24:53;4.87;;;2.20;;
5801;SDS011;2927;49.366;8.530;2022-10-28T11:33:12;8.13;;;3.03;;
5801;SDS011;2927;49.366;8.530;2022-10-28T11:43:50;5.97;;;2.60;;
5801;SDS011;2927;49.366;8.530;2022-10-28T11:57:38;12.40;;;3.13;;
5801;SDS011;2927;49.366;8.530;2022-10-28T12:05:44;10.13;;;2.70;;
5801;SDS011;2927;49.366;8.530;2022-10-28T12:08:34;6.83;;;2.77;;
5801;SDS011;2927;49.366;8.530;2022-10-28T12:19:34;10.83;;;2.63;;
5801;SDS011;2927;49.366;8.530;2022-10-28T12:22:10;11.83;;;2.87;;
5801;SDS011;2927;49.366;8.530;2022-10-28T12:24:43;11.17;;;2.53;;
5801;SDS011;2927;49.366;8.530;2022-10-28T12:27:18;12.20;;;2.80;;
5801;SDS011;2927;49.366;8.530;2022-10-28T12:29:53;11.70;;;2.73;;
5801;SDS011;2927;49.366;8.530;2022-10-28T12:32:28;9.37;;;2.13;;
5801;SDS011;2927;49.366;8.530;2022-10-28T12:35:02;10.30;;;3.77;;
5801;SDS011;2927;49.366;8.530;2022-10-28T12:37:37;7.80;;;2.57;;
5801;SDS011;2927;49.366;8.530;2022-10-28T12:40:09;7.47;;;2.70;;
5801;SDS011;2927;49.366;8.530;2022-10-28T12:42:56;6.70;;;3.10;;
5801;SDS011;2927;49.366;8.530;2022-10-28T12:45:25;11.03;;;2.70;;
5801;SDS011;2927;49.366;8.530;2022-10-28T12:55:59;12.73;;;2.77;;
5801;SDS011;2927;49.366;8.530;2022-10-28T12:58:28;8.27;;;3.63;;
5801;SDS011;2927;49.366;8.530;2022-10-28T13:01:14;9.40;;;2.90;;
5801;SDS011;2927;49.366;8.530;2022-10-28T13:03:42;11.30;;;4.00;;
5801;SDS011;2927;49.366;8.530;2022-10-28T13:15:04;9.40;;;2.57;;
5801;SDS011;2927;49.366;8.530;2022-10-28T13:28:54;14.43;;;3.27;;
5801;SDS011;2927;49.366;8.530;2022-10-28T13:31:22;8.43;;;2.57;;
5801;SDS011;2927;49.366;8.530;2022-10-28T13:33:59;10.70;;;4.00;;
5801;SDS011;2927;49.366;8.530;2022-10-28T13:36:26;11.93;;;2.90;;
5801;SDS011;2927;49.366;8.530;2022-10-28T13:38:55;9.90;;;4.10;;
5801;SDS011;2927;49.366;8.530;2022-10-28T13:41:25;12.80;;;2.63;;
5801;SDS011;2927;49.366;8.530;2022-10-28T13:43:55;23.20;;;3.50;;
5801;SDS011;2927;49.366;8.530;2022-10-28T13:49:29;7.23;;;4.57;;
5801;SDS011;2927;49.366;8.530;2022-10-28T13:52:03;15.47;;;3.47;;
5801;SDS011;2927;49.366;8.530;2022-10-28T13:57:16;9.90;;;3.17;;
5801;SDS011;2927;49.366;8.530;2022-10-28T13:59:47;9.50;;;2.30;;
5801;SDS011;2927;49.366;8.530;2022-10-28T14:02:35;15.00;;;3.00;;
5801;SDS011;2927;49.366;8.530;2022-10-28T14:05:09;8.37;;;2.80;;
5801;SDS011;2927;49.366;8.530;2022-10-28T14:07:59;10.13;;;2.43;;
5801;SDS011;2927;49.366;8.530;2022-10-28T14:10:30;11.83;;;2.70;;
5801;SDS011;2927;49.366;8.530;2022-10-28T14:12:59;8.80;;;3.37;;
5801;SDS011;2927;49.366;8.530;2022-10-28T14:15:35;9.03;;;3.33;;
5801;SDS011;2927;49.366;8.530;2022-10-28T14:41:44;9.20;;;2.23;;
5801;SDS011;2927;49.366;8.530;2022-10-28T14:47:21;15.13;;;2.50;;
5801;SDS011;2927;49.366;8.530;2022-10-28T14:50:02;4.93;;;2.27;;
5801;SDS011;2927;49.366;8.530;2022-10-28T14:52:30;9.40;;;3.30;;
5801;SDS011;2927;49.366;8.530;2022-10-28T14:55:00;14.90;;;3.30;;
5801;SDS011;2927;49.366;8.530;2022-10-28T14:57:30;18.50;;;3.40;;
5801;SDS011;2927;49.366;8.530;2022-10-28T15:00:01;9.20;;;3.20;;
5801;SDS011;2927;49.366;8.530;2022-10-28T15:02:32;16.80;;;2.30;;
5801;SDS011;2927;49.366;8.530;2022-10-28T15:07:39;10.13;;;3.10;;
5801;SDS011;2927;49.366;8.530;2022-10-28T15:10:20;17.10;;;3.30;;
5801;SDS011;2927;49.366;8.530;2022-10-28T15:12:46;12.67;;;3.20;;
5801;SDS011;2927;49.366;8.530;2022-10-28T15:15:36;10.50;;;3.70;;
5801;SDS011;2927;49.366;8.530;2022-10-28T15:18:01;7.50;;;2.80;;
5801;SDS011;2927;49.366;8.530;2022-10-28T15:20:45;11.93;;;2.70;;
5801;SDS011;2927;49.366;8.530;2022-10-28T15:25:43;11.33;;;2.67;;
5801;SDS011;2927;49.366;8.530;2022-10-28T15:28:10;8.07;;;2.80;;
5801;SDS011;2927;49.366;8.530;2022-10-28T15:30:37;14.57;;;3.47;;
5801;SDS011;2927;49.366;8.530;2022-10-28T15:33:25;18.93;;;2.90;;
5801;SDS011;2927;49.366;8.530;2022-10-28T15:35:52;5.83;;;2.63;;
5801;SDS011;2927;49.366;8.530;2022-10-28T15:38:23;14.77;;;3.73;;
5801;SDS011;2927;49.366;8.530;2022-10-28T15:40:49;10.33;;;3.10;;
5801;SDS011;2927;49.366;8.530;2022-10-28T15:43:27;19.93;;;3.37;;
5801;SDS011;2927;49.366;8.530;2022-10-28T15:48:29;9.43;;;4.40;;
5801;SDS011;2927;49.366;8.530;2022-10-28T15:53:41;12.37;;;3.90;;
5801;SDS011;2927;49.366;8.530;2022-10-28T15:56:15;16.17;;;3.80;;
5801;SDS011;2927;49.366;8.530;2022-10-28T15:58:43;10.83;;;3.67;;
5801;SDS011;2927;49.366;8.530;2022-10-28T16:07:06;10.83;;;6.10;;
5801;SDS011;2927;49.366;8.530;2022-10-28T16:09:33;8.13;;;3.67;;
5801;SDS011;2927;49.366;8.530;2022-10-28T16:12:20;13.43;;;4.40;;
5801;SDS011;2927;49.366;8.530;2022-10-28T16:14:55;16.37;;;4.20;;
5801;SDS011;2927;49.366;8.530;2022-10-28T16:17:26;22.67;;;3.00;;
5801;SDS011;2927;49.366;8.530;2022-10-28T16:22:26;17.40;;;4.57;;
5801;SDS011;2927;49.366;8.530;2022-10-28T16:24:53;22.03;;;3.43;;
5801;SDS011;2927;49.366;8.530;2022-10-28T16:27:23;11.03;;;3.33;;
5801;SDS011;2927;49.366;8.530;2022-10-28T16:29:54;10.93;;;3.00;;
5801;SDS011;2927;49.366;8.530;2022-10-28T16:32:36;7.97;;;3.40;;
5801;SDS011;2927;49.366;8.530;2022-10-28T16:35:11;10.60;;;3.73;;
5801;SDS011;2927;49.366;8.530;2022-10-28T16:37:39;8.37;;;4.17;;
5801;SDS011;2927;49.366;8.530;2022-10-28T16:40:06;10.10;;;5.20;;
5801;SDS011;2927;49.366;8.530;2022-10-28T16:42:32;16.63;;;5.83;;
5801;SDS011;2927;49.366;8.530;2022-10-28T16:44:58;13.73;;;4.10;;
5801;SDS011;2927;49.366;8.530;2022-10-28T16:47:23;12.30;;;4.87;;
5801;SDS011;2927;49.366;8.530;2022-10-28T16:49:50;13.67;;;4.10;;
5801;SDS011;2927;49.366;8.530;2022-10-28T16:52:20;12.53;;;5.80;;
5801;SDS011;2927;49.366;8.530;2022-10-28T16:54:48;14.70;;;6.93;;
5801;SDS011;2927;49.366;8.530;2022-10-28T16:57:15;11.27;;;5.77;;
5801;SDS011;2927;49.366;8.530;2022-10-28T16:59:42;22.50;;;8.07;;
5801;SDS011;2927;49.366;8.530;2022-10-28T17:02:14;19.87;;;10.20;;
5801;SDS011;2927;49.366;8.530;2022-10-28T17:04:49;22.30;;;8.87;;
5801;SDS011;2927;49.366;8.530;2022-10-28T17:07:14;11.53;;;8.67;;
5801;SDS011;2927;49.366;8.530;2022-10-28T17:09:41;18.37;;;8.90;;
5801;SDS011;2927;49.366;8.530;2022-10-28T17:12:10;22.97;;;10.40;;
5801;SDS011;2927;49.366;8.530;2022-10-28T17:14:38;23.90;;;11.30;;
5801;SDS011;2927;49.366;8.530;2022-10-28T17:17:04;28.37;;;11.03;;
5801;SDS011;2927;49.366;8.530;2022-10-28T17:19:29;22.03;;;11.83;;
5801;SDS011;2927;49.366;8.530;2022-10-28T17:21:55;18.63;;;8.30;;
5801;SDS011;2927;49.366;8.530;2022-10-28T17:24:20;29.37;;;8.10;;
5801;SDS011;2927;49.366;8.530;2022-10-28T17:26:46;18.53;;;6.40;;
5801;SDS011;2927;49.366;8.530;2022-10-28T17:29:12;16.27;;;6.87;;
5801;SDS011;2927;49.366;8.530;2022-10-28T17:31:38;19.60;;;7.90;;
5801;SDS011;2927;49.366;8.530;2022-10-28T17:34:04;22.47;;;6.57;;
5801;SDS011;2927;49.366;8.530;2022-10-28T17:36:29;11.40;;;6.23;;
5801;SDS011;2927;49.366;8.530;2022-10-28T17:38:55;19.57;;;6.17;;
5801;SDS011;2927;49.366;8.530;2022-10-28T17:41:21;10.67;;;5.40;;
5801;SDS011;2927;49.366;8.530;2022-10-28T17:43:46;13.53;;;6.67;;
5801;SDS011;2927;49.366;8.530;2022-10-28T17:46:12;16.43;;;6.47;;
5801;SDS011;2927;49.366;8.530;2022-10-28T17:48:37;16.27;;;6.47;;
5801;SDS011;2927;49.366;8.530;2022-10-28T17:51:04;10.03;;;5.37;;
5801;SDS011;2927;49.366;8.530;2022-10-28T17:53:30;15.90;;;6.30;;
5801;SDS011;2927;49.366;8.530;2022-10-28T17:55:56;25.53;;;7.77;;
5801;SDS011;2927;49.366;8.530;2022-10-28T17:58:25;16.00;;;5.90;;
5801;SDS011;2927;49.366;8.530;2022-10-28T18:00:58;21.67;;;7.30;;
5801;SDS011;2927;49.366;8.530;2022-10-28T18:03:25;23.33;;;7.73;;
5801;SDS011;2927;49.366;8.530;2022-10-28T18:05:51;10.97;;;7.60;;
5801;SDS011;2927;49.366;8.530;2022-10-28T18:08:17;12.97;;;5.93;;
5801;SDS011;2927;49.366;8.530;2022-10-28T18:10:51;15.93;;;6.20;;
5801;SDS011;2927;49.366;8.530;2022-10-28T18:13:18;14.53;;;7.03;;
5801;SDS011;2927;49.366;8.530;2022-10-28T18:15:44;16.00;;;6.87;;
5801;SDS011;2927;49.366;8.530;2022-10-28T18:18:10;18.93;;;7.33;;
5801;SDS011;2927;49.366;8.530;2022-10-28T18:20:35;22.10;;;8.67;;
5801;SDS011;2927;49.366;8.530;2022-10-28T18:23:01;20.63;;;8.43;;
5801;SDS011;2927;49.366;8.530;2022-10-28T18:25:27;17.33;;;6.70;;
5801;SDS011;2927;49.366;8.530;2022-10-28T18:27:53;15.33;;;6.17;;
5801;SDS011;2927;49.366;8.530;2022-10-28T18:30:18;17.30;;;5.43;;
5801;SDS011;2927;49.366;8.530;2022-10-28T18:32:44;11.43;;;6.40;;